Abilene, Kansas
Current Conditions -  °F | °C
As of 4:53 PM on Tuesday 21 Oct 2014 (Local Time) from KSLN Reporting Station
Clear Clear  
Wind Chill: 79°   Ceiling: Unl
Heat Index: 80°   Visibility: 10mi
Dew Point: 57°   Wind: 14mph
Humidity: 47%   Direction: 160°SSE
Pressure: 29.99"   Gusts: NA
Location:  38.92°N, 97.21°W
Report Text: KSLN 212153Z 16012KT 10SM CLR 26/14 A2999 RMK AO2 SLP150 T02610139
Loading
Personal Weather Stations






























Interactive Weather Map
Tropical Storm Tracking
New forecast layout! Learn more

10-Day Weather Forecast

Advertisements
Track Severe Weather on mobile